Akron, Ohio
Current Conditions -  °F | °C
As of 9:54 PM on Tuesday 21 Oct 2014 (Local Time) from KAKR Reporting Station
Light Rain Light Rain  
Wind Chill: 44°   Ceiling: 600
Heat Index: 48°   Visibility: 4mi
Dew Point: 45°   Wind: 8mph
Humidity: 89%   Direction: 340°NNW
Pressure: 30.07"   Gusts: NA
Location:  41.08°N, 81.51°W
Report Text: KAKR 220154Z AUTO 34007KT 4SM -RA BR OVC006 09/07 A3007 RMK AO2 RAB0056E24B51 CIG 004V011 SLP184 P0000 T00890072
Loading
Personal Weather Stations






























Interactive Weather Map New forecast layout! Learn more

10-Day Weather Forecast

Advertisements
Track Severe Weather on mobile